createdAt,value
2023-03-22T00:02:13.981Z,1.98
2023-03-22T00:04:42.694Z,2.00
2023-03-22T00:07:09.657Z,2.22
2023-03-22T00:09:36.660Z,1.92
2023-03-22T00:12:03.813Z,2.05
2023-03-22T00:14:30.692Z,2.10
2023-03-22T00:16:57.577Z,1.80
2023-03-22T00:19:24.516Z,1.83
2023-03-22T00:21:51.508Z,1.63
2023-03-22T00:24:18.435Z,2.30
2023-03-22T00:26:47.457Z,2.22
2023-03-22T00:29:14.573Z,2.45
2023-03-22T00:31:41.778Z,2.35
2023-03-22T00:34:08.629Z,2.03
2023-03-22T00:36:38.031Z,2.15
2023-03-22T00:39:04.869Z,2.35
2023-03-22T00:41:31.800Z,2.72
2023-03-22T00:43:58.718Z,2.30
2023-03-22T00:46:26.015Z,2.47
2023-03-22T00:48:53.085Z,2.50
2023-03-22T00:51:20.346Z,2.38
2023-03-22T00:53:50.863Z,2.30
2023-03-22T00:56:18.786Z,2.15
2023-03-22T00:58:56.356Z,3.10
2023-03-22T01:01:23.405Z,1.90
2023-03-22T01:03:50.797Z,2.58
2023-03-22T01:06:17.986Z,2.25
2023-03-22T01:08:45.812Z,2.50
2023-03-22T01:11:12.761Z,2.55
2023-03-22T01:13:41.707Z,2.30
2023-03-22T01:16:09.180Z,2.10
2023-03-22T01:18:36.399Z,2.38
2023-03-22T01:21:03.464Z,2.35
2023-03-22T01:23:30.728Z,3.10
2023-03-22T01:25:58.010Z,2.63
2023-03-22T01:28:27.051Z,2.30
2023-03-22T01:30:54.817Z,2.40
2023-03-22T01:33:21.912Z,2.92
2023-03-22T01:35:49.261Z,2.50
2023-03-22T01:38:16.551Z,2.83
2023-03-22T01:40:52.117Z,2.50
2023-03-22T01:43:19.427Z,2.33
2023-03-22T01:45:48.217Z,2.13
2023-03-22T01:48:31.370Z,2.20
2023-03-22T01:51:03.399Z,2.30
2023-03-22T01:53:39.697Z,2.30
2023-03-22T01:56:07.778Z,2.60
2023-03-22T01:58:36.605Z,2.13
2023-03-22T02:01:06.049Z,2.15
2023-03-22T02:03:51.067Z,2.30
2023-03-22T02:06:19.101Z,2.13
2023-03-22T02:08:49.883Z,2.38
2023-03-22T02:11:25.488Z,2.60
2023-03-22T02:14:09.154Z,2.40
2023-03-22T02:17:24.014Z,2.38
2023-03-22T02:20:20.517Z,2.78
2023-03-22T02:22:53.107Z,2.88
2023-03-22T02:25:31.305Z,3.05
2023-03-22T02:28:01.286Z,2.83
2023-03-22T02:30:51.184Z,3.33
2023-03-22T02:33:30.178Z,2.88
2023-03-22T02:36:23.144Z,2.90
2023-03-22T02:39:08.964Z,2.40
2023-03-22T02:41:51.985Z,2.72
2023-03-22T02:44:30.427Z,2.80
2023-03-22T02:47:07.839Z,3.10
2023-03-22T02:49:38.564Z,2.50
2023-03-22T02:54:39.274Z,2.30
2023-03-22T02:57:10.332Z,2.30
2023-03-22T02:59:38.442Z,2.22
2023-03-22T03:02:05.620Z,2.13
2023-03-22T03:04:36.379Z,2.85
2023-03-22T03:07:07.115Z,2.78
2023-03-22T03:09:34.108Z,2.30
2023-03-22T03:12:00.931Z,2.47
2023-03-22T03:14:29.620Z,2.25
2023-03-22T03:17:09.021Z,2.33
2023-03-22T03:19:38.421Z,2.42
2023-03-22T03:22:20.572Z,2.42
2023-03-22T03:25:23.257Z,2.40
2023-03-22T03:28:02.261Z,1.98
2023-03-22T03:30:35.173Z,2.05
2023-03-22T03:33:05.267Z,1.98
2023-03-22T03:35:37.651Z,3.15
2023-03-22T03:38:08.750Z,2.30
2023-03-22T03:40:44.108Z,2.55
2023-03-22T03:43:10.964Z,2.42
2023-03-22T03:45:37.889Z,2.60
2023-03-22T03:48:08.254Z,2.83
2023-03-22T03:53:05.463Z,2.13
2023-03-22T03:55:32.511Z,2.55
2023-03-22T03:57:59.408Z,2.30
2023-03-22T04:00:26.417Z,1.80
2023-03-22T04:03:13.223Z,1.83
2023-03-22T04:05:59.877Z,1.80
2023-03-22T04:08:28.021Z,1.95
2023-03-22T04:10:54.993Z,1.63
2023-03-22T04:13:22.256Z,1.70
2023-03-22T04:15:53.965Z,1.77
2023-03-22T04:18:21.318Z,1.80
2023-03-22T04:20:49.548Z,1.70
2023-03-22T04:23:17.292Z,2.10
2023-03-22T04:25:50.106Z,1.98
2023-03-22T04:28:24.045Z,2.15
2023-03-22T04:30:52.391Z,1.70
2023-03-22T04:33:46.988Z,1.80
2023-03-22T04:36:22.592Z,1.83
2023-03-22T04:39:11.039Z,1.70
2023-03-22T04:41:40.310Z,1.70
2023-03-22T04:44:07.428Z,1.40
2023-03-22T04:46:38.475Z,1.50
2023-03-22T04:49:07.047Z,1.77
2023-03-22T04:51:37.854Z,1.80
2023-03-22T04:54:26.600Z,1.60
2023-03-22T04:56:53.422Z,1.95
2023-03-22T04:59:22.750Z,2.00
2023-03-22T05:01:51.376Z,1.52
2023-03-22T05:04:21.858Z,1.40
2023-03-22T05:06:53.536Z,2.00
2023-03-22T05:09:26.521Z,1.60
2023-03-22T05:11:54.370Z,1.50
2023-03-22T05:14:32.889Z,1.45
2023-03-22T05:17:00.108Z,1.52
2023-03-22T05:19:27.600Z,2.20
2023-03-22T05:21:58.504Z,1.70
2023-03-22T05:24:38.264Z,1.52
2023-03-22T05:27:05.835Z,1.70
2023-03-22T05:29:37.051Z,1.75
2023-03-22T05:32:14.574Z,1.90
2023-03-22T05:34:42.808Z,1.98
2023-03-22T05:37:25.418Z,1.50
2023-03-22T05:39:56.401Z,1.60
2023-03-22T05:42:34.042Z,1.83
2023-03-22T05:45:04.743Z,1.67
2023-03-22T05:47:34.380Z,1.70
2023-03-22T05:50:08.379Z,2.45
2023-03-22T05:52:35.629Z,1.60
2023-03-22T05:55:32.176Z,2.00
2023-03-22T05:58:02.006Z,1.60
2023-03-22T06:00:34.258Z,1.40
2023-03-22T06:03:19.567Z,1.60
2023-03-22T06:05:54.884Z,1.63
2023-03-22T06:08:31.384Z,1.60
2023-03-22T06:10:59.114Z,2.10
2023-03-22T06:13:26.388Z,1.85
2023-03-22T06:15:54.118Z,1.60
2023-03-22T06:18:24.184Z,1.70
2023-03-22T06:20:58.361Z,1.75
2023-03-22T06:23:25.647Z,1.63
2023-03-22T06:25:53.225Z,1.83
2023-03-22T06:28:20.151Z,1.67
2023-03-22T06:30:50.775Z,1.55
2023-03-22T06:33:35.339Z,1.60
2023-03-22T06:36:10.661Z,1.52
2023-03-22T06:38:50.241Z,1.40
2023-03-22T06:41:17.696Z,1.52
2023-03-22T06:43:44.608Z,1.45
2023-03-22T06:46:25.208Z,1.33
2023-03-22T06:49:01.266Z,1.55
2023-03-22T06:51:28.275Z,1.52
2023-03-22T06:53:55.433Z,1.60
2023-03-22T06:56:22.495Z,1.50
2023-03-22T06:58:54.518Z,1.58
2023-03-22T07:01:21.818Z,1.63
2023-03-22T07:03:48.911Z,1.70
2023-03-22T07:06:17.496Z,1.77
2023-03-22T07:08:50.740Z,2.03
2023-03-22T07:11:22.677Z,1.90
2023-03-22T07:13:57.197Z,1.75
2023-03-22T07:16:25.723Z,2.38
2023-03-22T07:18:57.126Z,1.98
2023-03-22T07:21:24.238Z,1.70
2023-03-22T07:23:55.912Z,2.35
2023-03-22T07:26:30.560Z,2.20
2023-03-22T07:28:58.696Z,2.47
2023-03-22T07:31:35.694Z,2.47
2023-03-22T07:34:05.293Z,1.80
2023-03-22T07:36:40.351Z,1.83
2023-03-22T07:39:10.392Z,1.73
2023-03-22T07:41:42.108Z,2.45
2023-03-22T07:44:24.238Z,2.40
2023-03-22T07:47:22.151Z,2.63
2023-03-22T07:50:20.605Z,2.30
2023-03-22T07:52:52.999Z,2.60
2023-03-22T07:55:19.923Z,2.42
2023-03-22T07:57:46.813Z,3.42
2023-03-22T08:00:14.765Z,2.85
2023-03-22T08:02:53.879Z,2.80
2023-03-22T08:05:40.729Z,2.72
2023-03-22T08:08:08.550Z,2.72
2023-03-22T08:10:35.496Z,2.80
2023-03-22T08:13:02.416Z,3.13
2023-03-22T08:15:30.105Z,2.25
2023-03-22T08:17:58.112Z,2.70
2023-03-22T08:20:32.235Z,2.83
2023-03-22T08:23:03.726Z,2.90
2023-03-22T08:25:49.397Z,2.90
2023-03-22T08:28:16.825Z,2.67
2023-03-22T08:30:44.875Z,2.67
2023-03-22T08:33:12.005Z,2.70
2023-03-22T08:35:39.316Z,2.45
2023-03-22T08:38:06.516Z,2.38
2023-03-22T08:40:41.456Z,2.50
2023-03-22T08:43:08.408Z,2.28
2023-03-22T08:45:36.186Z,2.10
2023-03-22T08:48:09.568Z,1.80
2023-03-22T08:50:57.794Z,1.90
2023-03-22T08:53:34.123Z,1.65
2023-03-22T08:56:22.656Z,1.80
2023-03-22T08:59:01.502Z,1.50
2023-03-22T09:01:51.270Z,1.80
2023-03-22T09:04:18.288Z,1.73
2023-03-22T09:06:46.947Z,1.65
2023-03-22T09:09:14.643Z,1.73
2023-03-22T09:11:43.312Z,1.92
2023-03-22T09:14:10.466Z,2.17
2023-03-22T09:16:37.464Z,2.20
2023-03-22T09:19:06.607Z,1.77
2023-03-22T09:21:34.287Z,1.90
2023-03-22T09:24:09.733Z,1.80
2023-03-22T09:26:44.323Z,1.88
2023-03-22T09:29:11.184Z,1.85
2023-03-22T09:31:40.271Z,1.75
2023-03-22T09:34:31.993Z,2.22
2023-03-22T09:37:02.343Z,1.80
2023-03-22T09:39:38.437Z,2.20
2023-03-22T09:42:08.042Z,1.45
2023-03-22T09:44:39.542Z,1.38
2023-03-22T09:47:15.800Z,1.40
2023-03-22T09:49:53.036Z,1.55
2023-03-22T09:52:20.746Z,1.58
2023-03-22T09:54:47.682Z,1.48
2023-03-22T09:57:32.784Z,1.40
2023-03-22T10:00:20.890Z,1.23
2023-03-22T10:03:14.520Z,1.35
2023-03-22T10:06:09.968Z,1.23
2023-03-22T10:08:59.606Z,1.30
2023-03-22T10:11:35.320Z,1.23
2023-03-22T10:14:16.286Z,1.10
2023-03-22T10:16:43.146Z,1.08
2023-03-22T10:19:41.414Z,1.40
2023-03-22T10:22:09.218Z,1.60
2023-03-22T10:24:37.275Z,1.20
2023-03-22T10:27:04.348Z,1.27
2023-03-22T10:29:35.303Z,1.40
2023-03-22T10:32:14.055Z,1.60
2023-03-22T10:34:41.115Z,1.50
2023-03-22T10:37:09.214Z,1.38
2023-03-22T10:39:38.612Z,1.23
2023-03-22T10:42:11.417Z,1.55
2023-03-22T10:44:57.223Z,1.17
2023-03-22T10:47:34.157Z,1.20
2023-03-22T10:50:03.473Z,1.20
2023-03-22T10:52:30.631Z,1.20
2023-03-22T10:55:01.224Z,1.20
2023-03-22T10:57:29.972Z,1.30
2023-03-22T10:59:57.117Z,1.10
2023-03-22T11:02:30.854Z,1.30
2023-03-22T11:05:03.720Z,1.40
2023-03-22T11:07:34.797Z,1.40
2023-03-22T11:10:10.342Z,1.52
2023-03-22T11:12:48.332Z,1.35
2023-03-22T11:15:32.125Z,1.10
2023-03-22T11:18:04.935Z,1.20
2023-03-22T11:20:32.589Z,1.48
2023-03-22T11:23:04.970Z,1.50
2023-03-22T11:28:05.400Z,1.50
2023-03-22T11:30:33.252Z,1.73
2023-03-22T11:33:21.254Z,2.20
2023-03-22T11:35:53.788Z,1.40
2023-03-22T11:38:31.078Z,1.63
2023-03-22T11:41:02.546Z,1.02
2023-03-22T11:43:40.723Z,1.30
2023-03-22T11:46:08.148Z,1.20
2023-03-22T11:48:36.184Z,1.50
2023-03-22T11:51:11.313Z,1.10
2023-03-22T11:53:43.482Z,1.48
2023-03-22T11:56:11.519Z,1.00
2023-03-22T11:58:38.440Z,1.10
2023-03-22T12:01:05.989Z,1.00
2023-03-22T12:03:39.298Z,0.90
2023-03-22T12:06:27.074Z,1.10
2023-03-22T12:08:58.970Z,1.00
2023-03-22T12:11:34.136Z,0.80
2023-03-22T12:14:29.797Z,0.90
2023-03-22T12:16:57.920Z,1.00
2023-03-22T12:19:40.718Z,0.90
2023-03-22T12:22:40.023Z,0.90
2023-03-22T12:25:12.461Z,1.10
2023-03-22T12:27:41.442Z,1.00
2023-03-22T12:30:14.441Z,0.90
2023-03-22T12:32:43.377Z,1.00
2023-03-22T12:35:18.294Z,0.88
2023-03-22T12:37:48.671Z,1.00
2023-03-22T12:40:25.665Z,0.95
2023-03-22T12:43:16.112Z,1.05
2023-03-22T12:45:46.061Z,1.10
2023-03-22T12:48:19.657Z,1.10
2023-03-22T12:50:57.212Z,1.20
2023-03-22T12:53:27.513Z,1.20
2023-03-22T12:55:55.548Z,1.20
2023-03-22T12:58:23.510Z,1.33
2023-03-22T13:01:18.889Z,1.30
2023-03-22T13:03:52.366Z,1.23
2023-03-22T13:06:45.421Z,1.25
2023-03-22T13:09:19.821Z,1.45
2023-03-22T13:12:16.300Z,1.40
2023-03-22T13:14:51.996Z,1.50
2023-03-22T13:17:24.990Z,1.30
2023-03-22T13:19:53.572Z,1.77
2023-03-22T13:22:27.648Z,1.40
2023-03-22T13:25:14.468Z,1.50
2023-03-22T13:27:50.755Z,1.50
2023-03-22T13:30:33.136Z,1.70
2023-03-22T13:33:08.679Z,1.75
2023-03-22T13:35:50.962Z,1.50
2023-03-22T13:38:27.660Z,1.70
2023-03-22T13:41:24.586Z,1.85
2023-03-22T13:43:56.157Z,1.63
2023-03-22T13:46:23.050Z,2.42
2023-03-22T13:48:50.700Z,1.92
2023-03-22T13:51:21.183Z,2.22
2023-03-22T13:54:28.783Z,2.50
2023-03-22T13:56:57.251Z,2.20
2023-03-22T13:59:27.514Z,2.28
2023-03-22T14:02:04.766Z,2.30
2023-03-22T14:04:57.483Z,2.20
2023-03-22T14:10:05.497Z,2.55
2023-03-22T14:12:45.263Z,2.80
2023-03-22T14:15:16.001Z,2.42
2023-03-22T14:17:50.634Z,2.38
2023-03-22T14:20:19.653Z,2.35
